createdAt,value
2022-09-23T00:02:09.206Z,101429.59
2022-09-23T00:04:41.629Z,101429.97
2022-09-23T00:07:12.340Z,101426.72
2022-09-23T00:09:39.917Z,101429.97
2022-09-23T00:12:09.200Z,101431.19
2022-09-23T00:14:39.028Z,101429.94
2022-09-23T00:17:07.028Z,101431.13
2022-09-23T00:19:39.279Z,101423.84
2022-09-23T00:22:09.857Z,101427.91
2022-09-23T00:24:42.217Z,101426.31
2022-09-23T00:27:10.022Z,101434.38
2022-09-23T00:29:40.079Z,101426.25
2022-09-23T00:32:08.587Z,101421.00
2022-09-23T00:34:36.141Z,101429.91
2022-09-23T00:37:06.391Z,101423.34
2022-09-23T00:39:39.366Z,101424.94
2022-09-23T00:42:14.077Z,101422.56
2022-09-23T00:44:49.002Z,101423.78
2022-09-23T00:47:47.548Z,101418.94
2022-09-23T00:50:36.445Z,101412.91
2022-09-23T00:53:09.529Z,101412.06
2022-09-23T00:55:40.193Z,101412.44
2022-09-23T00:58:12.082Z,101415.28
2022-09-23T01:00:47.766Z,101410.00
2022-09-23T01:03:20.684Z,101405.59
2022-09-23T01:05:51.562Z,101402.78
2022-09-23T01:08:27.053Z,101399.22
2022-09-23T01:11:33.641Z,101396.88
2022-09-23T01:14:22.094Z,101400.34
2022-09-23T01:17:14.660Z,101396.38
2022-09-23T01:20:04.329Z,101394.34
2022-09-23T01:22:34.985Z,101396.81
2022-09-23T01:25:31.699Z,101389.53
2022-09-23T01:28:33.454Z,101390.03
2022-09-23T01:31:30.201Z,101388.84
2022-09-23T01:34:12.728Z,101381.13
2022-09-23T01:36:55.049Z,101380.75
2022-09-23T01:39:42.218Z,101380.78
2022-09-23T01:42:26.305Z,101390.53
2022-09-23T01:45:03.784Z,101389.78
2022-09-23T01:47:48.575Z,101389.78
2022-09-23T01:50:45.705Z,101390.59
2022-09-23T01:53:24.144Z,101384.56
2022-09-23T01:55:58.917Z,101374.84
2022-09-23T01:59:11.247Z,101377.66
2022-09-23T02:02:11.275Z,101364.69
2022-09-23T02:04:51.503Z,101375.91
2022-09-23T02:07:35.403Z,101366.53
2022-09-23T02:10:27.345Z,101372.91
2022-09-23T02:13:05.419Z,101377.28
2022-09-23T02:15:38.239Z,101375.22
2022-09-23T02:18:17.487Z,101369.53
2022-09-23T02:20:47.564Z,101366.56
2022-09-23T02:23:40.208Z,101374.63
2022-09-23T02:26:26.599Z,101364.91
2022-09-23T02:29:33.373Z,101369.72
2022-09-23T02:32:26.680Z,101366.38
2022-09-23T02:35:18.101Z,101361.53
2022-09-23T02:38:05.811Z,101365.16
2022-09-23T02:40:40.324Z,101359.03
2022-09-23T02:43:15.131Z,101362.25
2022-09-23T02:45:43.353Z,101363.84
2022-09-23T02:48:19.465Z,101360.66
2022-09-23T02:50:50.450Z,101350.50
2022-09-23T02:53:18.044Z,101355.34
2022-09-23T02:55:46.382Z,101349.28
2022-09-23T02:58:14.327Z,101347.63
2022-09-23T03:01:31.516Z,101354.47
2022-09-23T03:04:22.582Z,101337.47
2022-09-23T03:07:06.399Z,101346.00
2022-09-23T03:09:36.745Z,101343.13
2022-09-23T03:12:34.398Z,101347.59
2022-09-23T03:15:19.065Z,101344.69
2022-09-23T03:18:19.312Z,101349.19
2022-09-23T03:20:53.589Z,101339.47
2022-09-23T03:23:26.395Z,101334.66
2022-09-23T03:25:57.061Z,101329.03
2022-09-23T03:28:31.144Z,101335.84
2022-09-23T03:31:01.502Z,101333.44
2022-09-23T03:33:31.249Z,101327.31
2022-09-23T03:36:27.069Z,101332.50
2022-09-23T03:39:04.071Z,101321.63
2022-09-23T03:41:45.290Z,101317.16
2022-09-23T03:44:12.899Z,101324.81
2022-09-23T03:46:49.746Z,101325.25
2022-09-23T03:49:28.626Z,101317.50
2022-09-23T03:51:56.212Z,101319.56
2022-09-23T03:54:30.078Z,101324.81
2022-09-23T03:57:02.138Z,101315.94
2022-09-23T03:59:30.836Z,101315.50
2022-09-23T04:01:59.642Z,101305.41
2022-09-23T04:04:30.104Z,101307.38
2022-09-23T04:07:05.721Z,101304.59
2022-09-23T04:09:38.212Z,101300.84
2022-09-23T04:12:07.571Z,101297.59
2022-09-23T04:14:35.572Z,101304.09
2022-09-23T04:17:03.453Z,101303.28
2022-09-23T04:19:33.523Z,101301.69
2022-09-23T04:22:01.346Z,101298.41
2022-09-23T04:24:29.242Z,101300.47
2022-09-23T04:27:03.599Z,101300.44
2022-09-23T04:29:31.487Z,101301.66
2022-09-23T04:32:04.151Z,101302.03
2022-09-23T04:34:39.497Z,101294.34
2022-09-23T04:37:15.107Z,101298.41
2022-09-23T04:39:43.945Z,101301.22
2022-09-23T04:42:14.242Z,101295.56
2022-09-23T04:44:44.598Z,101289.50
2022-09-23T04:47:12.487Z,101302.06
2022-09-23T04:49:40.901Z,101298.00
2022-09-23T04:52:08.642Z,101297.56
2022-09-23T04:54:36.919Z,101298.38
2022-09-23T04:57:11.295Z,101293.13
2022-09-23T04:59:38.993Z,101305.25
2022-09-23T05:02:09.701Z,101299.97
2022-09-23T05:04:41.740Z,101304.44
2022-09-23T05:07:10.635Z,101310.47
2022-09-23T05:09:41.844Z,101307.28
2022-09-23T05:12:12.763Z,101301.97
2022-09-23T05:14:40.811Z,101312.06
2022-09-23T05:17:14.462Z,101314.06
2022-09-23T05:19:43.175Z,101303.56
2022-09-23T05:22:11.008Z,101309.22
2022-09-23T05:24:41.317Z,101308.41
2022-09-23T05:27:09.377Z,101315.31
2022-09-23T05:29:39.232Z,101316.53
2022-09-23T05:32:09.282Z,101313.28
2022-09-23T05:34:40.897Z,101314.88
2022-09-23T05:37:11.695Z,101311.56
2022-09-23T05:39:41.944Z,101313.25
2022-09-23T05:42:12.801Z,101313.25
2022-09-23T05:44:40.575Z,101308.44
2022-09-23T05:47:08.482Z,101310.06
2022-09-23T05:49:58.588Z,101307.59
2022-09-23T05:52:30.081Z,101307.66
2022-09-23T05:55:03.183Z,101315.34
2022-09-23T05:57:30.580Z,101305.63
2022-09-23T06:00:01.314Z,101304.38
2022-09-23T06:02:29.176Z,101303.19
2022-09-23T06:05:02.568Z,101305.75
2022-09-23T06:07:31.634Z,101310.34
2022-09-23T06:09:59.647Z,101309.66
2022-09-23T06:12:27.543Z,101301.97
2022-09-23T06:14:57.874Z,101307.34
2022-09-23T06:17:25.680Z,101303.34
2022-09-23T06:20:01.157Z,101306.63
2022-09-23T06:22:32.713Z,101303.81
2022-09-23T06:25:02.284Z,101308.28
2022-09-23T06:27:33.624Z,101306.72
2022-09-23T06:30:05.071Z,101314.44
2022-09-23T06:32:37.160Z,101302.78
2022-09-23T06:35:17.830Z,101303.34
2022-09-23T06:37:58.153Z,101304.59
2022-09-23T06:40:31.380Z,101306.63
2022-09-23T06:43:00.355Z,101304.34
2022-09-23T06:45:32.098Z,101305.56
2022-09-23T06:48:00.081Z,101307.59
2022-09-23T06:50:29.507Z,101306.38
2022-09-23T06:53:00.413Z,101307.66
2022-09-23T06:55:28.827Z,101304.63
2022-09-23T06:58:01.034Z,101317.63
2022-09-23T07:00:29.857Z,101303.91
2022-09-23T07:03:01.140Z,101313.66
2022-09-23T07:05:28.752Z,101310.06
2022-09-23T07:07:59.823Z,101309.22
2022-09-23T07:10:30.993Z,101305.97
2022-09-23T07:13:02.345Z,101310.06
2022-09-23T07:15:34.804Z,101310.03
2022-09-23T07:18:03.075Z,101314.06
2022-09-23T07:20:36.747Z,101313.56
2022-09-23T07:23:07.042Z,101313.34
2022-09-23T07:25:38.788Z,101319.81
2022-09-23T07:28:16.372Z,101321.44
2022-09-23T07:30:57.846Z,101326.88
2022-09-23T07:33:33.025Z,101330.13
2022-09-23T07:36:18.992Z,101330.31
2022-09-23T07:38:52.970Z,101327.06
2022-09-23T07:41:20.672Z,101328.69
2022-09-23T07:43:55.673Z,101327.88
2022-09-23T07:46:31.430Z,101329.91
2022-09-23T07:49:08.258Z,101329.09
2022-09-23T07:51:40.429Z,101333.97
2022-09-23T07:54:17.881Z,101334.75
2022-09-23T07:56:48.510Z,101329.88
2022-09-23T07:59:21.691Z,101332.69
2022-09-23T08:01:54.353Z,101336.34
2022-09-23T08:04:39.462Z,101334.28
2022-09-23T08:07:14.859Z,101336.00
2022-09-23T08:09:56.425Z,101332.72
2022-09-23T08:12:35.455Z,101328.28
2022-09-23T08:15:07.397Z,101331.44
2022-09-23T08:17:42.852Z,101332.69
2022-09-23T08:20:35.909Z,101331.09
2022-09-23T08:23:13.910Z,101329.13
2022-09-23T08:25:48.882Z,101336.81
2022-09-23T08:28:24.987Z,101336.00
2022-09-23T08:30:58.156Z,101334.34
2022-09-23T08:33:28.994Z,101337.63
2022-09-23T08:36:01.844Z,101342.09
2022-09-23T08:38:30.342Z,101329.94
2022-09-23T08:41:31.449Z,101346.97
2022-09-23T08:44:10.252Z,101340.88
2022-09-23T08:46:49.288Z,101335.97
2022-09-23T08:49:36.312Z,101340.44
2022-09-23T08:52:21.370Z,101334.41
2022-09-23T08:54:55.397Z,101339.66
2022-09-23T08:58:23.416Z,101333.53
2022-09-23T09:00:53.484Z,101329.88
2022-09-23T09:03:35.501Z,101331.88
2022-09-23T09:06:03.862Z,101332.69
2022-09-23T09:08:37.700Z,101336.34
2022-09-23T09:11:07.120Z,101333.91
2022-09-23T09:13:49.159Z,101326.63
2022-09-23T09:16:59.378Z,101324.66
2022-09-23T09:19:47.572Z,101321.75
2022-09-23T09:22:40.369Z,101321.38
2022-09-23T09:25:51.086Z,101319.34
2022-09-23T09:28:37.727Z,101314.47
2022-09-23T09:31:24.272Z,101315.25
2022-09-23T09:34:19.554Z,101316.88
2022-09-23T09:37:15.306Z,101314.03
2022-09-23T09:39:51.049Z,101312.88
2022-09-23T09:42:36.960Z,101317.72
2022-09-23T09:45:33.981Z,101312.81
2022-09-23T09:49:06.036Z,101309.59
2022-09-23T09:51:46.866Z,101317.31
2022-09-23T09:54:35.275Z,101306.78
2022-09-23T09:57:18.351Z,101313.63
2022-09-23T09:59:52.948Z,101313.66
2022-09-23T10:02:43.830Z,101324.22
2022-09-23T10:05:46.923Z,101304.78
2022-09-23T10:08:36.352Z,101308.41
2022-09-23T10:11:19.738Z,101312.84
2022-09-23T10:14:20.649Z,101305.53
2022-09-23T10:17:05.673Z,101298.16
2022-09-23T10:19:50.079Z,101305.84
2022-09-23T10:22:33.258Z,101310.00
2022-09-23T10:25:12.160Z,101303.53
2022-09-23T10:27:52.904Z,101299.06
2022-09-23T10:30:38.701Z,101299.09
2022-09-23T10:33:32.559Z,101293.41
2022-09-23T10:36:07.954Z,101298.28
2022-09-23T10:38:45.147Z,101291.38
2022-09-23T10:41:57.857Z,101292.97
2022-09-23T10:45:05.425Z,101289.66
2022-09-23T10:47:55.785Z,101287.16
2022-09-23T10:50:34.648Z,101290.31
2022-09-23T10:53:16.402Z,101293.66
2022-09-23T10:56:28.393Z,101286.69
2022-09-23T10:59:22.526Z,101289.22
2022-09-23T11:02:29.446Z,101285.22
2022-09-23T11:05:00.636Z,101273.72
2022-09-23T11:07:49.859Z,101281.59
2022-09-23T11:10:45.894Z,101274.75
2022-09-23T11:13:54.630Z,101271.13
2022-09-23T11:16:41.471Z,101270.66
2022-09-23T11:20:00.882Z,101263.75
2022-09-23T11:23:00.873Z,101262.09
2022-09-23T11:25:31.928Z,101256.75
2022-09-23T11:28:40.767Z,101244.59
2022-09-23T11:31:33.981Z,101240.53
2022-09-23T11:34:33.636Z,101237.28
2022-09-23T11:37:15.036Z,101231.19
2022-09-23T11:40:27.973Z,101236.00
2022-09-23T11:43:21.146Z,101223.38
2022-09-23T11:45:56.903Z,101224.22
2022-09-23T11:48:45.561Z,101227.56
2022-09-23T11:52:03.702Z,101223.50
2022-09-23T11:54:42.383Z,101213.84
2022-09-23T11:57:48.883Z,101214.28
2022-09-23T12:00:34.039Z,101217.91
2022-09-23T12:03:44.118Z,101212.16
2022-09-23T12:06:33.665Z,101208.09
2022-09-23T12:09:47.100Z,101206.91
2022-09-23T12:12:48.284Z,101197.56
2022-09-23T12:15:45.609Z,101193.09
2022-09-23T12:18:36.049Z,101195.13
2022-09-23T12:21:50.978Z,101194.31
2022-09-23T12:24:52.171Z,101198.34
2022-09-23T12:27:44.829Z,101192.66
2022-09-23T12:30:27.221Z,101188.59
2022-09-23T12:33:32.713Z,101190.19
2022-09-23T12:36:15.434Z,101186.53
2022-09-23T12:38:55.142Z,101182.09
2022-09-23T12:41:37.829Z,101184.88
2022-09-23T12:44:14.179Z,101175.63
2022-09-23T12:46:50.455Z,101175.19
2022-09-23T12:49:37.865Z,101171.91
2022-09-23T12:52:15.619Z,101171.13
2022-09-23T12:55:10.401Z,101163.44
2022-09-23T12:57:44.544Z,101161.81
2022-09-23T13:00:16.888Z,101163.03
2022-09-23T13:02:47.942Z,101156.16
2022-09-23T13:05:47.746Z,101152.88
2022-09-23T13:08:27.989Z,101141.50
2022-09-23T13:11:05.490Z,101144.00
2022-09-23T13:13:45.644Z,101140.75
2022-09-23T13:16:29.629Z,101124.50
2022-09-23T13:19:01.929Z,101135.41
2022-09-23T13:21:45.949Z,101126.16
2022-09-23T13:24:19.151Z,101130.59
2022-09-23T13:26:50.581Z,101132.19
2022-09-23T13:29:27.478Z,101126.91
2022-09-23T13:31:58.551Z,101121.66
2022-09-23T13:34:33.421Z,101124.94
2022-09-23T13:37:24.917Z,101120.06
2022-09-23T13:39:52.989Z,101120.84
2022-09-23T13:42:31.390Z,101120.84
2022-09-23T13:45:05.153Z,101111.97
2022-09-23T13:47:36.309Z,101116.47
2022-09-23T13:50:05.231Z,101118.06
2022-09-23T13:52:39.136Z,101115.25
2022-09-23T13:55:28.722Z,101116.47
2022-09-23T13:58:05.606Z,101108.41
2022-09-23T14:00:41.338Z,101107.19
2022-09-23T14:03:41.304Z,101106.78
2022-09-23T14:06:19.360Z,101103.16
2022-09-23T14:08:52.640Z,101096.63
2022-09-23T14:11:30.873Z,101092.63
2022-09-23T14:14:09.678Z,101098.72
2022-09-23T14:16:49.098Z,101094.66
2022-09-23T14:19:25.948Z,101081.28
2022-09-23T14:22:12.278Z,101084.53
2022-09-23T14:24:54.918Z,101078.84
2022-09-23T14:27:37.050Z,101078.84
2022-09-23T14:30:11.324Z,101083.34
2022-09-23T14:32:43.404Z,101081.28
2022-09-23T14:35:43.145Z,101078.44
2022-09-23T14:38:47.242Z,101076.41
2022-09-23T14:41:26.275Z,101071.16
2022-09-23T14:44:03.274Z,101065.84
2022-09-23T14:46:39.016Z,101066.19
2022-09-23T14:49:19.371Z,101052.75
2022-09-23T14:51:58.360Z,101061.94
2022-09-23T14:54:41.379Z,101059.50
2022-09-23T14:57:25.564Z,101062.00
2022-09-23T15:00:28.476Z,101059.19
2022-09-23T15:03:04.386Z,101042.25
2022-09-23T15:05:51.075Z,101056.50
2022-09-23T15:08:22.399Z,101047.53
2022-09-23T15:10:53.984Z,101054.75
2022-09-23T15:13:36.710Z,101058.78
2022-09-23T15:16:06.139Z,101052.19
2022-09-23T15:18:39.309Z,101044.06
2022-09-23T15:21:17.284Z,101044.75
2022-09-23T15:23:57.251Z,101045.56
2022-09-23T15:26:58.329Z,101058.63
2022-09-23T15:29:32.116Z,101051.97
2022-09-23T15:32:02.448Z,101049.19
2022-09-23T15:34:32.021Z,101051.25
2022-09-23T15:37:03.395Z,101041.56
2022-09-23T15:39:36.246Z,101033.44
2022-09-23T15:42:06.158Z,101034.19
2022-09-23T15:44:36.973Z,101036.50
2022-09-23T15:47:10.814Z,101033.38
2022-09-23T15:49:47.287Z,101027.38
2022-09-23T15:52:22.171Z,101029.06
2022-09-23T15:54:51.206Z,101028.81
2022-09-23T15:57:26.301Z,101018.34
2022-09-23T15:59:58.653Z,101019.97
2022-09-23T16:02:30.556Z,101020.75
2022-09-23T16:05:06.471Z,101021.59
2022-09-23T16:07:37.780Z,101022.44
2022-09-23T16:10:08.437Z,101018.78
2022-09-23T16:12:40.253Z,101022.00
2022-09-23T16:15:16.532Z,101023.22
2022-09-23T16:17:49.993Z,101017.50
2022-09-23T16:20:28.028Z,101024.41
2022-09-23T16:23:07.771Z,101028.09
2022-09-23T16:25:38.545Z,101022.84
